createdAt,value
2019-02-12T00:10:46.770Z,92.42
2019-02-12T00:16:10.083Z,92.18
2019-02-12T00:21:14.349Z,91.83
2019-02-12T00:26:37.564Z,91.37
2019-02-12T00:31:41.788Z,91.33
2019-02-12T00:37:05.091Z,91.39
2019-02-12T00:42:28.339Z,91.14
2019-02-12T00:47:39.921Z,91.19
2019-02-12T00:52:55.525Z,90.85
2019-02-12T00:57:59.762Z,90.75
2019-02-12T01:08:33.145Z,91.12
2019-02-12T01:13:37.391Z,91.00
2019-02-12T01:18:41.752Z,91.76
2019-02-12T01:23:45.979Z,92.22
2019-02-12T01:28:50.470Z,91.83
2019-02-12T01:39:23.701Z,91.41
2019-02-12T01:49:38.005Z,91.08
2019-02-12T01:54:53.528Z,91.12
2019-02-12T01:59:58.124Z,91.15
2019-02-12T02:05:21.723Z,91.24
2019-02-12T02:10:44.857Z,91.68
2019-02-12T02:15:49.449Z,91.99
2019-02-12T02:21:12.758Z,92.55
2019-02-12T02:26:17.002Z,92.16
2019-02-12T02:36:31.816Z,91.36
2019-02-12T02:41:55.115Z,91.26
2019-02-12T02:47:18.403Z,91.21
2019-02-12T02:52:22.628Z,90.52
2019-02-12T02:57:26.906Z,90.48
2019-02-12T03:07:41.225Z,91.21
2019-02-12T03:12:45.486Z,91.27
2019-02-12T03:17:49.726Z,91.52
2019-02-12T03:23:13.049Z,91.37
2019-02-12T03:28:17.282Z,90.79
2019-02-12T03:33:40.602Z,90.88
2019-02-12T03:38:45.095Z,90.60
2019-02-12T03:43:49.406Z,90.74
2019-02-12T03:48:53.584Z,90.14
2019-02-12T03:59:47.363Z,90.08
2019-02-12T04:10:20.234Z,90.25
2019-02-12T04:15:24.527Z,90.02
2019-02-12T04:20:28.759Z,89.87
2019-02-12T04:25:52.133Z,89.95
2019-02-12T04:30:56.370Z,89.98
2019-02-12T04:36:00.620Z,90.17
2019-02-12T04:41:04.910Z,90.12
2019-02-12T04:46:09.135Z,90.20
2019-02-12T04:51:13.474Z,90.33
2019-02-12T04:56:36.795Z,90.51
2019-02-12T05:01:41.097Z,90.74
2019-02-12T05:12:35.324Z,90.98
2019-02-12T05:17:39.622Z,91.15
2019-02-12T05:27:53.218Z,91.00
2019-02-12T05:32:57.471Z,90.97
2019-02-12T05:38:20.880Z,90.93
2019-02-12T05:43:25.113Z,90.44
2019-02-12T05:48:48.410Z,90.38
2019-02-12T05:53:52.660Z,90.34
2019-02-12T05:59:16.257Z,90.47
2019-02-12T06:19:49.512Z,90.63
2019-02-12T06:25:13.133Z,90.81
2019-02-12T06:30:17.369Z,90.60
2019-02-12T06:35:21.613Z,90.89
2019-02-12T06:40:44.826Z,91.25
2019-02-12T06:45:49.116Z,91.89
2019-02-12T06:50:53.366Z,92.47
2019-02-12T06:55:57.615Z,92.50
2019-02-12T07:01:21.301Z,92.71
2019-02-12T07:06:36.938Z,92.91
2019-02-12T07:12:30.240Z,92.82
2019-02-12T07:18:12.523Z,92.73
2019-02-12T07:23:51.598Z,92.49
2019-02-12T07:29:20.410Z,92.72
2019-02-12T07:34:51.198Z,92.46
2019-02-12T07:40:33.563Z,92.35
2019-02-12T07:46:15.885Z,92.34
2019-02-12T07:51:58.149Z,92.08
2019-02-12T07:57:40.751Z,92.22
2019-02-12T08:03:23.144Z,91.61
2019-02-12T08:08:55.892Z,90.95
2019-02-12T08:14:38.208Z,90.61
2019-02-12T08:20:22.232Z,90.19
2019-02-12T08:26:04.513Z,90.14
2019-02-12T08:31:46.912Z,89.71
2019-02-12T08:37:29.201Z,89.81
2019-02-12T08:43:11.746Z,89.92
2019-02-12T08:48:54.025Z,89.54
2019-02-12T08:54:36.314Z,89.42
2019-02-12T09:00:24.145Z,89.40
2019-02-12T09:06:06.423Z,89.57
2019-02-12T09:11:48.883Z,88.98
2019-02-12T09:17:31.213Z,89.32
2019-02-12T09:23:13.611Z,88.25
2019-02-12T09:28:39.647Z,87.77
2019-02-12T09:34:21.923Z,87.44
2019-02-12T09:40:04.276Z,87.40
2019-02-12T09:45:49.626Z,87.25
2019-02-12T09:51:32.056Z,87.11
2019-02-12T09:57:14.694Z,86.89
2019-02-12T10:08:52.985Z,86.41
2019-02-12T10:14:22.363Z,86.24
2019-02-12T10:26:02.600Z,85.96
2019-02-12T10:36:37.269Z,85.30
2019-02-12T10:41:41.889Z,85.39
2019-02-12T10:46:46.996Z,85.01
2019-02-12T10:52:31.057Z,85.79
2019-02-12T10:57:36.078Z,84.76
2019-02-12T11:02:40.323Z,85.18
2019-02-12T11:12:54.633Z,84.85
2019-02-12T11:17:58.897Z,84.38
2019-02-12T11:23:03.416Z,84.85
2019-02-12T11:28:07.689Z,83.74
2019-02-12T11:38:40.769Z,83.42
2019-02-12T11:43:45.097Z,82.46
2019-02-12T11:48:49.429Z,82.09
2019-02-12T11:54:13.066Z,82.05
2019-02-12T11:59:36.568Z,81.84
2019-02-12T12:04:40.934Z,80.36
2019-02-12T12:09:45.276Z,79.33
2019-02-12T12:15:08.774Z,79.73
2019-02-12T12:20:13.129Z,80.83
2019-02-12T12:25:17.433Z,79.57
2019-02-12T12:30:21.739Z,79.38
2019-02-12T12:35:45.052Z,79.66
2019-02-12T12:41:08.353Z,79.57
2019-02-12T12:46:12.618Z,79.08
2019-02-12T12:51:16.904Z,79.62
2019-02-12T12:56:21.165Z,78.83
2019-02-12T13:01:25.427Z,78.88
2019-02-12T13:16:49.146Z,77.17
2019-02-12T13:21:53.520Z,77.25
2019-02-12T13:37:55.499Z,76.41
2019-02-12T13:43:18.739Z,75.37
2019-02-12T13:48:42.043Z,74.68
2019-02-12T13:53:46.484Z,75.15
2019-02-12T13:58:51.091Z,75.21
2019-02-12T14:04:14.433Z,73.45
2019-02-12T14:14:47.752Z,73.43
2019-02-12T14:19:52.095Z,73.15
2019-02-12T14:25:07.702Z,73.28
2019-02-12T14:30:52.555Z,72.43
2019-02-12T14:35:56.859Z,72.73
2019-02-12T14:41:20.089Z,71.29
2019-02-12T14:46:24.385Z,71.97
2019-02-12T14:51:29.219Z,72.34
2019-02-12T14:56:33.933Z,71.84
2019-02-12T15:01:38.403Z,71.49
2019-02-12T15:06:42.661Z,72.88
2019-02-12T15:11:46.929Z,72.56
2019-02-12T15:16:51.329Z,72.55
2019-02-12T15:21:55.734Z,72.59
2019-02-12T15:27:00.027Z,73.17
2019-02-12T15:32:04.428Z,73.37
2019-02-12T15:37:08.829Z,72.70
2019-02-12T15:42:13.355Z,73.53
2019-02-12T15:47:17.789Z,74.37
2019-02-12T15:52:22.133Z,73.04
2019-02-12T15:57:27.164Z,74.44
2019-02-12T16:02:32.037Z,74.43
2019-02-12T16:07:38.486Z,74.34
2019-02-12T16:12:43.371Z,74.41
2019-02-12T16:17:47.606Z,75.10
2019-02-12T16:22:51.998Z,75.98
2019-02-12T16:27:56.459Z,76.09
2019-02-12T16:33:00.790Z,75.51
2019-02-12T16:38:05.377Z,76.02
2019-02-12T16:43:09.917Z,76.15
2019-02-12T16:48:14.483Z,76.37
2019-02-12T16:53:18.802Z,76.24
2019-02-12T16:58:23.074Z,77.29
2019-02-12T17:03:27.395Z,77.98
2019-02-12T17:08:31.623Z,77.53
2019-02-12T17:13:36.197Z,79.08
2019-02-12T17:18:40.442Z,79.26
2019-02-12T17:23:44.742Z,78.60
2019-02-12T17:28:49.135Z,79.20
2019-02-12T17:33:53.430Z,79.07
2019-02-12T17:38:57.723Z,79.72
2019-02-12T17:44:02.021Z,80.77
2019-02-12T18:02:55.690Z,81.44
2019-02-12T18:08:01.346Z,82.17
2019-02-12T18:13:06.605Z,83.16
2019-02-12T18:18:11.812Z,82.98
2019-02-12T18:23:17.021Z,83.35
2019-02-12T18:28:22.220Z,83.76
2019-02-12T18:33:38.839Z,84.47
2019-02-12T18:44:19.744Z,84.38
2019-02-12T18:49:44.538Z,84.14
2019-02-12T18:55:09.374Z,84.42
2019-02-12T19:06:14.420Z,85.01
2019-02-12T19:16:36.330Z,85.45
2019-02-12T19:21:41.554Z,85.40
2019-02-12T19:26:49.961Z,85.74
2019-02-12T19:42:32.873Z,85.04
2019-02-12T19:47:38.097Z,85.14
2019-02-12T19:52:43.307Z,85.60
2019-02-12T19:58:09.551Z,86.05
2019-02-12T20:08:32.387Z,87.19
2019-02-12T20:13:43.430Z,87.04
2019-02-12T20:19:00.399Z,87.04
2019-02-12T20:29:41.329Z,86.83
2019-02-12T20:34:46.847Z,87.58
2019-02-12T20:45:28.478Z,87.70
2019-02-12T20:50:33.891Z,88.05
2019-02-12T20:55:41.588Z,88.57
2019-02-12T21:00:46.778Z,88.90
2019-02-12T21:06:03.478Z,88.28
2019-02-12T21:11:09.064Z,88.35
2019-02-12T21:16:25.864Z,88.23
2019-02-12T21:27:40.759Z,88.33
2019-02-12T21:32:46.269Z,88.54
2019-02-12T21:38:04.352Z,88.45
2019-02-12T21:48:27.576Z,88.41
2019-02-12T21:59:03.030Z,89.43
2019-02-12T22:04:08.250Z,89.44
2019-02-12T22:09:13.473Z,89.41
2019-02-12T22:14:18.707Z,89.12
2019-02-12T22:19:24.024Z,89.19
2019-02-12T22:30:16.322Z,89.06
2019-02-12T22:35:22.176Z,89.53
2019-02-12T22:40:28.522Z,89.03
2019-02-12T22:45:34.149Z,89.23
2019-02-12T22:50:39.477Z,89.38
2019-02-12T22:56:03.723Z,88.87
2019-02-12T23:01:20.937Z,89.48
2019-02-12T23:06:27.335Z,89.73
2019-02-12T23:17:28.087Z,90.35
2019-02-12T23:22:55.591Z,90.43
2019-02-12T23:28:21.022Z,89.87
2019-02-12T23:34:08.036Z,90.35
2019-02-12T23:39:14.308Z,89.76
2019-02-12T23:44:21.535Z,90.41
2019-02-12T23:49:38.894Z,90.57
